sensor_id;sensor_type;location;lat;lon;timestamp;P1;durP1;ratioP1;P2;durP2;ratioP2
8066;SDS011;4076;48.076;9.118;2023-08-06T00:02:13;3.53;;;3.33;;
8066;SDS011;4076;48.076;9.118;2023-08-06T00:04:38;3.63;;;3.30;;
8066;SDS011;4076;48.076;9.118;2023-08-06T00:07:04;3.67;;;3.37;;
8066;SDS011;4076;48.076;9.118;2023-08-06T00:09:30;2.70;;;2.50;;
8066;SDS011;4076;48.076;9.118;2023-08-06T00:11:55;3.73;;;3.10;;
8066;SDS011;4076;48.076;9.118;2023-08-06T00:14:21;3.13;;;2.93;;
8066;SDS011;4076;48.076;9.118;2023-08-06T00:16:46;2.97;;;2.77;;
8066;SDS011;4076;48.076;9.118;2023-08-06T00:19:12;3.60;;;3.30;;
8066;SDS011;4076;48.076;9.118;2023-08-06T00:21:38;3.63;;;3.30;;
8066;SDS011;4076;48.076;9.118;2023-08-06T00:24:03;3.40;;;3.10;;
8066;SDS011;4076;48.076;9.118;2023-08-06T00:26:29;2.43;;;2.33;;
8066;SDS011;4076;48.076;9.118;2023-08-06T00:28:55;3.97;;;3.57;;
8066;SDS011;4076;48.076;9.118;2023-08-06T00:31:20;3.00;;;2.80;;
8066;SDS011;4076;48.076;9.118;2023-08-06T00:33:46;3.43;;;3.13;;
8066;SDS011;4076;48.076;9.118;2023-08-06T00:36:11;3.60;;;3.30;;
8066;SDS011;4076;48.076;9.118;2023-08-06T00:38:37;3.20;;;2.93;;
8066;SDS011;4076;48.076;9.118;2023-08-06T00:41:02;3.33;;;3.13;;
8066;SDS011;4076;48.076;9.118;2023-08-06T00:43:28;5.17;;;3.07;;
8066;SDS011;4076;48.076;9.118;2023-08-06T00:45:54;3.23;;;3.03;;
8066;SDS011;4076;48.076;9.118;2023-08-06T00:48:20;3.73;;;3.43;;
8066;SDS011;4076;48.076;9.118;2023-08-06T00:50:46;3.60;;;3.20;;
8066;SDS011;4076;48.076;9.118;2023-08-06T00:53:12;3.60;;;3.30;;
8066;SDS011;4076;48.076;9.118;2023-08-06T00:55:38;3.07;;;2.77;;
8066;SDS011;4076;48.076;9.118;2023-08-06T00:58:04;2.73;;;2.53;;
8066;SDS011;4076;48.076;9.118;2023-08-06T01:00:30;2.30;;;2.20;;
8066;SDS011;4076;48.076;9.118;2023-08-06T01:02:56;4.00;;;3.07;;
8066;SDS011;4076;48.076;9.118;2023-08-06T01:05:21;3.20;;;2.90;;
8066;SDS011;4076;48.076;9.118;2023-08-06T01:10:48;2.63;;;2.43;;
8066;SDS011;4076;48.076;9.118;2023-08-06T01:13:24;3.10;;;2.90;;
8066;SDS011;4076;48.076;9.118;2023-08-06T01:16:00;3.43;;;3.10;;
8066;SDS011;4076;48.076;9.118;2023-08-06T01:18:28;3.50;;;3.30;;
8066;SDS011;4076;48.076;9.118;2023-08-06T01:20:54;3.53;;;3.33;;
8066;SDS011;4076;48.076;9.118;2023-08-06T01:23:19;3.10;;;2.90;;
8066;SDS011;4076;48.076;9.118;2023-08-06T01:31:04;3.50;;;3.20;;
8066;SDS011;4076;48.076;9.118;2023-08-06T01:33:35;3.13;;;2.93;;
8066;SDS011;4076;48.076;9.118;2023-08-06T01:36:04;2.90;;;2.67;;
8066;SDS011;4076;48.076;9.118;2023-08-06T01:38:31;2.70;;;2.50;;
8066;SDS011;4076;48.076;9.118;2023-08-06T01:40:57;2.60;;;2.40;;
8066;SDS011;4076;48.076;9.118;2023-08-06T01:43:22;2.97;;;2.77;;
8066;SDS011;4076;48.076;9.118;2023-08-06T01:45:48;3.17;;;2.93;;
8066;SDS011;4076;48.076;9.118;2023-08-06T01:48:13;2.60;;;2.43;;
8066;SDS011;4076;48.076;9.118;2023-08-06T01:50:39;3.30;;;3.00;;
8066;SDS011;4076;48.076;9.118;2023-08-06T01:53:05;3.43;;;3.17;;
8066;SDS011;4076;48.076;9.118;2023-08-06T01:55:30;2.83;;;2.63;;
8066;SDS011;4076;48.076;9.118;2023-08-06T01:57:56;3.90;;;3.20;;
8066;SDS011;4076;48.076;9.118;2023-08-06T02:00:21;3.57;;;3.27;;
8066;SDS011;4076;48.076;9.118;2023-08-06T02:02:47;3.50;;;3.20;;
8066;SDS011;4076;48.076;9.118;2023-08-06T02:05:12;3.83;;;2.47;;
8066;SDS011;4076;48.076;9.118;2023-08-06T02:07:38;3.63;;;3.17;;
8066;SDS011;4076;48.076;9.118;2023-08-06T02:10:03;4.17;;;3.80;;
8066;SDS011;4076;48.076;9.118;2023-08-06T02:12:29;3.90;;;3.60;;
8066;SDS011;4076;48.076;9.118;2023-08-06T02:14:55;3.47;;;3.17;;
8066;SDS011;4076;48.076;9.118;2023-08-06T02:17:20;3.47;;;3.27;;
8066;SDS011;4076;48.076;9.118;2023-08-06T02:19:46;4.73;;;3.50;;
8066;SDS011;4076;48.076;9.118;2023-08-06T02:22:11;2.90;;;2.70;;
8066;SDS011;4076;48.076;9.118;2023-08-06T02:24:37;2.43;;;2.23;;
8066;SDS011;4076;48.076;9.118;2023-08-06T02:27:03;3.20;;;2.90;;
8066;SDS011;4076;48.076;9.118;2023-08-06T02:29:28;2.97;;;2.77;;
8066;SDS011;4076;48.076;9.118;2023-08-06T02:31:54;2.27;;;2.10;;
8066;SDS011;4076;48.076;9.118;2023-08-06T02:34:20;2.30;;;2.10;;
8066;SDS011;4076;48.076;9.118;2023-08-06T02:36:45;3.00;;;2.80;;
8066;SDS011;4076;48.076;9.118;2023-08-06T02:39:11;2.87;;;2.67;;
8066;SDS011;4076;48.076;9.118;2023-08-06T02:41:36;3.40;;;3.10;;
8066;SDS011;4076;48.076;9.118;2023-08-06T02:44:02;3.13;;;2.93;;
8066;SDS011;4076;48.076;9.118;2023-08-06T02:46:28;3.00;;;2.80;;
8066;SDS011;4076;48.076;9.118;2023-08-06T02:48:56;3.30;;;3.00;;
8066;SDS011;4076;48.076;9.118;2023-08-06T02:51:22;3.30;;;2.87;;
8066;SDS011;4076;48.076;9.118;2023-08-06T02:53:48;3.47;;;3.23;;
8066;SDS011;4076;48.076;9.118;2023-08-06T02:56:14;3.50;;;3.20;;
8066;SDS011;4076;48.076;9.118;2023-08-06T02:58:40;2.80;;;2.60;;
8066;SDS011;4076;48.076;9.118;2023-08-06T03:01:06;3.53;;;3.20;;
8066;SDS011;4076;48.076;9.118;2023-08-06T03:03:32;2.93;;;2.73;;
8066;SDS011;4076;48.076;9.118;2023-08-06T03:05:58;3.17;;;2.87;;
8066;SDS011;4076;48.076;9.118;2023-08-06T03:08:24;2.80;;;2.57;;
8066;SDS011;4076;48.076;9.118;2023-08-06T03:10:50;2.63;;;2.43;;
8066;SDS011;4076;48.076;9.118;2023-08-06T03:13:16;2.90;;;2.70;;
8066;SDS011;4076;48.076;9.118;2023-08-06T03:15:42;3.30;;;3.00;;
8066;SDS011;4076;48.076;9.118;2023-08-06T03:18:08;4.20;;;2.93;;
8066;SDS011;4076;48.076;9.118;2023-08-06T03:20:33;3.33;;;3.03;;
8066;SDS011;4076;48.076;9.118;2023-08-06T03:22:59;4.00;;;3.70;;
8066;SDS011;4076;48.076;9.118;2023-08-06T03:25:25;3.43;;;3.23;;
8066;SDS011;4076;48.076;9.118;2023-08-06T03:27:50;3.60;;;3.30;;
8066;SDS011;4076;48.076;9.118;2023-08-06T03:30:16;3.67;;;3.07;;
8066;SDS011;4076;48.076;9.118;2023-08-06T03:32:41;2.40;;;2.30;;
8066;SDS011;4076;48.076;9.118;2023-08-06T03:35:07;2.23;;;2.10;;
8066;SDS011;4076;48.076;9.118;2023-08-06T03:37:32;2.40;;;2.20;;
8066;SDS011;4076;48.076;9.118;2023-08-06T03:39:58;4.20;;;3.10;;
8066;SDS011;4076;48.076;9.118;2023-08-06T03:42:24;2.43;;;2.30;;
8066;SDS011;4076;48.076;9.118;2023-08-06T03:44:49;2.57;;;2.37;;
8066;SDS011;4076;48.076;9.118;2023-08-06T03:47:15;2.90;;;2.67;;
8066;SDS011;4076;48.076;9.118;2023-08-06T03:49:40;3.90;;;3.30;;
8066;SDS011;4076;48.076;9.118;2023-08-06T03:52:06;2.20;;;2.10;;
8066;SDS011;4076;48.076;9.118;2023-08-06T03:54:32;3.07;;;2.83;;
8066;SDS011;4076;48.076;9.118;2023-08-06T03:56:57;2.60;;;2.40;;
8066;SDS011;4076;48.076;9.118;2023-08-06T03:59:23;2.80;;;2.60;;
8066;SDS011;4076;48.076;9.118;2023-08-06T04:01:48;3.40;;;3.10;;
8066;SDS011;4076;48.076;9.118;2023-08-06T04:04:14;3.83;;;3.47;;
8066;SDS011;4076;48.076;9.118;2023-08-06T04:06:39;3.37;;;3.07;;
8066;SDS011;4076;48.076;9.118;2023-08-06T04:09:05;3.17;;;2.97;;
8066;SDS011;4076;48.076;9.118;2023-08-06T04:11:31;2.43;;;2.33;;
8066;SDS011;4076;48.076;9.118;2023-08-06T04:13:56;5.60;;;5.20;;
8066;SDS011;4076;48.076;9.118;2023-08-06T04:16:22;4.00;;;3.27;;
8066;SDS011;4076;48.076;9.118;2023-08-06T04:18:47;3.03;;;2.83;;
8066;SDS011;4076;48.076;9.118;2023-08-06T04:21:13;2.93;;;2.73;;
8066;SDS011;4076;48.076;9.118;2023-08-06T04:23:39;4.50;;;3.77;;
8066;SDS011;4076;48.076;9.118;2023-08-06T04:26:04;3.53;;;2.97;;
8066;SDS011;4076;48.076;9.118;2023-08-06T04:28:30;3.33;;;3.03;;
8066;SDS011;4076;48.076;9.118;2023-08-06T04:30:55;2.73;;;2.53;;
8066;SDS011;4076;48.076;9.118;2023-08-06T04:33:21;3.13;;;2.93;;
8066;SDS011;4076;48.076;9.118;2023-08-06T04:35:47;2.80;;;2.60;;
8066;SDS011;4076;48.076;9.118;2023-08-06T04:38:12;2.80;;;2.60;;
8066;SDS011;4076;48.076;9.118;2023-08-06T04:40:38;2.70;;;2.50;;
8066;SDS011;4076;48.076;9.118;2023-08-06T04:43:03;2.80;;;2.60;;
8066;SDS011;4076;48.076;9.118;2023-08-06T04:45:29;1.70;;;1.60;;
8066;SDS011;4076;48.076;9.118;2023-08-06T04:47:54;2.97;;;2.70;;
8066;SDS011;4076;48.076;9.118;2023-08-06T04:50:20;2.67;;;2.50;;
8066;SDS011;4076;48.076;9.118;2023-08-06T04:52:45;3.20;;;2.20;;
8066;SDS011;4076;48.076;9.118;2023-08-06T04:55:11;3.83;;;1.50;;
8066;SDS011;4076;48.076;9.118;2023-08-06T04:57:37;1.97;;;1.87;;
8066;SDS011;4076;48.076;9.118;2023-08-06T05:00:02;2.13;;;1.93;;
8066;SDS011;4076;48.076;9.118;2023-08-06T05:02:29;2.27;;;1.93;;
8066;SDS011;4076;48.076;9.118;2023-08-06T05:04:57;1.77;;;1.67;;
8066;SDS011;4076;48.076;9.118;2023-08-06T05:07:23;1.50;;;1.40;;
8066;SDS011;4076;48.076;9.118;2023-08-06T05:09:48;1.60;;;1.50;;
8066;SDS011;4076;48.076;9.118;2023-08-06T05:12:14;1.10;;;1.00;;
8066;SDS011;4076;48.076;9.118;2023-08-06T05:14:40;1.60;;;1.50;;
8066;SDS011;4076;48.076;9.118;2023-08-06T05:17:05;1.80;;;1.30;;
8066;SDS011;4076;48.076;9.118;2023-08-06T05:19:31;2.30;;;1.60;;
8066;SDS011;4076;48.076;9.118;2023-08-06T05:21:56;1.20;;;1.10;;
8066;SDS011;4076;48.076;9.118;2023-08-06T05:24:22;1.93;;;1.30;;
8066;SDS011;4076;48.076;9.118;2023-08-06T05:26:47;1.50;;;1.40;;
8066;SDS011;4076;48.076;9.118;2023-08-06T05:29:13;1.70;;;1.20;;
8066;SDS011;4076;48.076;9.118;2023-08-06T05:31:39;1.40;;;1.30;;
8066;SDS011;4076;48.076;9.118;2023-08-06T05:34:04;1.10;;;1.00;;
8066;SDS011;4076;48.076;9.118;2023-08-06T05:36:30;2.13;;;1.30;;
8066;SDS011;4076;48.076;9.118;2023-08-06T05:38:56;1.37;;;1.27;;
8066;SDS011;4076;48.076;9.118;2023-08-06T05:41:21;1.20;;;1.10;;
8066;SDS011;4076;48.076;9.118;2023-08-06T05:43:47;2.37;;;1.27;;
8066;SDS011;4076;48.076;9.118;2023-08-06T05:46:13;1.40;;;1.30;;
8066;SDS011;4076;48.076;9.118;2023-08-06T05:48:38;2.33;;;1.13;;
8066;SDS011;4076;48.076;9.118;2023-08-06T05:51:04;1.03;;;0.93;;
8066;SDS011;4076;48.076;9.118;2023-08-06T05:53:29;0.80;;;0.80;;
8066;SDS011;4076;48.076;9.118;2023-08-06T05:55:55;1.33;;;1.10;;
8066;SDS011;4076;48.076;9.118;2023-08-06T05:58:21;0.97;;;0.77;;
8066;SDS011;4076;48.076;9.118;2023-08-06T06:00:46;1.43;;;1.30;;
8066;SDS011;4076;48.076;9.118;2023-08-06T06:03:12;1.20;;;1.00;;
8066;SDS011;4076;48.076;9.118;2023-08-06T06:05:38;1.97;;;1.10;;
8066;SDS011;4076;48.076;9.118;2023-08-06T06:08:06;1.00;;;0.90;;
8066;SDS011;4076;48.076;9.118;2023-08-06T06:10:32;2.30;;;1.47;;
8066;SDS011;4076;48.076;9.118;2023-08-06T06:12:57;1.07;;;0.97;;
8066;SDS011;4076;48.076;9.118;2023-08-06T06:15:23;1.23;;;0.90;;
8066;SDS011;4076;48.076;9.118;2023-08-06T06:17:48;0.90;;;0.90;;
8066;SDS011;4076;48.076;9.118;2023-08-06T06:20:14;1.33;;;0.90;;
8066;SDS011;4076;48.076;9.118;2023-08-06T06:22:39;1.27;;;0.90;;
8066;SDS011;4076;48.076;9.118;2023-08-06T06:25:05;1.10;;;1.00;;
8066;SDS011;4076;48.076;9.118;2023-08-06T06:27:31;1.27;;;0.90;;
8066;SDS011;4076;48.076;9.118;2023-08-06T06:29:57;0.90;;;0.80;;
8066;SDS011;4076;48.076;9.118;2023-08-06T06:32:22;0.80;;;0.80;;
8066;SDS011;4076;48.076;9.118;2023-08-06T06:34:48;2.87;;;1.10;;
8066;SDS011;4076;48.076;9.118;2023-08-06T06:37:14;1.10;;;0.80;;
8066;SDS011;4076;48.076;9.118;2023-08-06T06:39:39;1.47;;;1.17;;
8066;SDS011;4076;48.076;9.118;2023-08-06T06:42:05;1.23;;;0.80;;
8066;SDS011;4076;48.076;9.118;2023-08-06T06:44:30;1.47;;;1.07;;
8066;SDS011;4076;48.076;9.118;2023-08-06T06:46:56;1.10;;;1.00;;
8066;SDS011;4076;48.076;9.118;2023-08-06T06:49:21;1.00;;;0.80;;
8066;SDS011;4076;48.076;9.118;2023-08-06T06:51:47;0.80;;;0.80;;
8066;SDS011;4076;48.076;9.118;2023-08-06T06:54:12;1.00;;;0.90;;
8066;SDS011;4076;48.076;9.118;2023-08-06T06:56:38;0.80;;;0.70;;
8066;SDS011;4076;48.076;9.118;2023-08-06T06:59:03;1.03;;;0.93;;
8066;SDS011;4076;48.076;9.118;2023-08-06T07:01:30;1.30;;;0.90;;
8066;SDS011;4076;48.076;9.118;2023-08-06T07:03:55;0.80;;;0.80;;
8066;SDS011;4076;48.076;9.118;2023-08-06T07:06:22;0.80;;;0.80;;
8066;SDS011;4076;48.076;9.118;2023-08-06T07:08:47;0.93;;;0.90;;
8066;SDS011;4076;48.076;9.118;2023-08-06T07:11:13;0.90;;;0.80;;
8066;SDS011;4076;48.076;9.118;2023-08-06T07:13:38;0.83;;;0.80;;
8066;SDS011;4076;48.076;9.118;2023-08-06T07:16:04;0.70;;;0.70;;
8066;SDS011;4076;48.076;9.118;2023-08-06T07:18:30;0.97;;;0.87;;
8066;SDS011;4076;48.076;9.118;2023-08-06T07:20:55;0.90;;;0.80;;
8066;SDS011;4076;48.076;9.118;2023-08-06T07:23:21;0.80;;;0.80;;
8066;SDS011;4076;48.076;9.118;2023-08-06T07:25:49;0.80;;;0.70;;
8066;SDS011;4076;48.076;9.118;2023-08-06T07:28:15;0.70;;;0.70;;
8066;SDS011;4076;48.076;9.118;2023-08-06T07:30:41;0.70;;;0.60;;
8066;SDS011;4076;48.076;9.118;2023-08-06T07:33:08;1.83;;;0.80;;
8066;SDS011;4076;48.076;9.118;2023-08-06T07:35:34;1.00;;;0.80;;
8066;SDS011;4076;48.076;9.118;2023-08-06T07:38:00;0.80;;;0.60;;
8066;SDS011;4076;48.076;9.118;2023-08-06T07:40:25;0.70;;;0.70;;
8066;SDS011;4076;48.076;9.118;2023-08-06T07:42:51;0.80;;;0.60;;
8066;SDS011;4076;48.076;9.118;2023-08-06T07:45:16;1.63;;;0.90;;
8066;SDS011;4076;48.076;9.118;2023-08-06T07:47:42;0.70;;;0.60;;
8066;SDS011;4076;48.076;9.118;2023-08-06T07:50:08;0.80;;;0.67;;
8066;SDS011;4076;48.076;9.118;2023-08-06T07:52:34;0.80;;;0.60;;
8066;SDS011;4076;48.076;9.118;2023-08-06T07:55:00;1.53;;;0.60;;
8066;SDS011;4076;48.076;9.118;2023-08-06T07:57:30;0.70;;;0.60;;
8066;SDS011;4076;48.076;9.118;2023-08-06T07:59:59;1.47;;;0.60;;
8066;SDS011;4076;48.076;9.118;2023-08-06T08:02:25;1.47;;;0.60;;
8066;SDS011;4076;48.076;9.118;2023-08-06T08:04:51;2.17;;;0.70;;
8066;SDS011;4076;48.076;9.118;2023-08-06T08:07:16;0.80;;;0.80;;
8066;SDS011;4076;48.076;9.118;2023-08-06T08:09:43;0.90;;;0.60;;
8066;SDS011;4076;48.076;9.118;2023-08-06T08:12:08;1.20;;;0.60;;
8066;SDS011;4076;48.076;9.118;2023-08-06T08:14:34;0.70;;;0.70;;
8066;SDS011;4076;48.076;9.118;2023-08-06T08:17:04;1.00;;;0.60;;
8066;SDS011;4076;48.076;9.118;2023-08-06T08:19:30;0.80;;;0.60;;
8066;SDS011;4076;48.076;9.118;2023-08-06T08:21:56;0.70;;;0.70;;
8066;SDS011;4076;48.076;9.118;2023-08-06T08:24:22;1.63;;;0.70;;
8066;SDS011;4076;48.076;9.118;2023-08-06T08:26:51;0.70;;;0.60;;
8066;SDS011;4076;48.076;9.118;2023-08-06T08:29:17;0.80;;;0.70;;
8066;SDS011;4076;48.076;9.118;2023-08-06T08:31:43;0.70;;;0.60;;
8066;SDS011;4076;48.076;9.118;2023-08-06T08:34:09;1.77;;;1.27;;
8066;SDS011;4076;48.076;9.118;2023-08-06T08:36:35;0.70;;;0.50;;
8066;SDS011;4076;48.076;9.118;2023-08-06T08:39:00;0.80;;;0.67;;
8066;SDS011;4076;48.076;9.118;2023-08-06T08:41:32;0.80;;;0.60;;
8066;SDS011;4076;48.076;9.118;2023-08-06T08:43:58;0.80;;;0.70;;
8066;SDS011;4076;48.076;9.118;2023-08-06T08:46:31;1.00;;;0.90;;
8066;SDS011;4076;48.076;9.118;2023-08-06T08:48:58;0.70;;;0.60;;
8066;SDS011;4076;48.076;9.118;2023-08-06T08:51:28;1.10;;;0.60;;
8066;SDS011;4076;48.076;9.118;2023-08-06T08:53:55;0.80;;;0.60;;
8066;SDS011;4076;48.076;9.118;2023-08-06T08:56:22;0.73;;;0.60;;
8066;SDS011;4076;48.076;9.118;2023-08-06T08:58:48;0.70;;;0.60;;
8066;SDS011;4076;48.076;9.118;2023-08-06T09:01:15;0.70;;;0.70;;
8066;SDS011;4076;48.076;9.118;2023-08-06T09:03:41;1.10;;;0.60;;
8066;SDS011;4076;48.076;9.118;2023-08-06T09:06:08;0.87;;;0.70;;
8066;SDS011;4076;48.076;9.118;2023-08-06T09:08:37;0.70;;;0.60;;
8066;SDS011;4076;48.076;9.118;2023-08-06T09:11:08;0.80;;;0.60;;
8066;SDS011;4076;48.076;9.118;2023-08-06T09:13:37;0.87;;;0.70;;
8066;SDS011;4076;48.076;9.118;2023-08-06T09:16:03;0.80;;;0.60;;
8066;SDS011;4076;48.076;9.118;2023-08-06T09:18:29;0.70;;;0.70;;
8066;SDS011;4076;48.076;9.118;2023-08-06T09:20:56;0.70;;;0.60;;
8066;SDS011;4076;48.076;9.118;2023-08-06T09:23:29;0.80;;;0.70;;
8066;SDS011;4076;48.076;9.118;2023-08-06T09:25:55;0.70;;;0.60;;
8066;SDS011;4076;48.076;9.118;2023-08-06T09:28:22;0.80;;;0.60;;
8066;SDS011;4076;48.076;9.118;2023-08-06T09:30:49;1.20;;;0.60;;
8066;SDS011;4076;48.076;9.118;2023-08-06T09:33:18;0.70;;;0.70;;
8066;SDS011;4076;48.076;9.118;2023-08-06T09:35:45;0.93;;;0.80;;
8066;SDS011;4076;48.076;9.118;2023-08-06T09:38:12;0.70;;;0.50;;
8066;SDS011;4076;48.076;9.118;2023-08-06T09:40:38;0.80;;;0.70;;
8066;SDS011;4076;48.076;9.118;2023-08-06T09:43:04;0.70;;;0.60;;
8066;SDS011;4076;48.076;9.118;2023-08-06T09:45:31;0.70;;;0.60;;
8066;SDS011;4076;48.076;9.118;2023-08-06T09:48:05;0.70;;;0.67;;
8066;SDS011;4076;48.076;9.118;2023-08-06T09:50:32;0.70;;;0.60;;
8066;SDS011;4076;48.076;9.118;2023-08-06T09:53:01;0.70;;;0.60;;
8066;SDS011;4076;48.076;9.118;2023-08-06T09:55:27;0.70;;;0.70;;
8066;SDS011;4076;48.076;9.118;2023-08-06T09:57:52;0.80;;;0.80;;
8066;SDS011;4076;48.076;9.118;2023-08-06T10:00:19;0.80;;;0.80;;
8066;SDS011;4076;48.076;9.118;2023-08-06T10:02:47;0.70;;;0.60;;
8066;SDS011;4076;48.076;9.118;2023-08-06T10:05:16;0.70;;;0.60;;
8066;SDS011;4076;48.076;9.118;2023-08-06T10:07:43;0.70;;;0.67;;
8066;SDS011;4076;48.076;9.118;2023-08-06T10:10:10;0.93;;;0.60;;
8066;SDS011;4076;48.076;9.118;2023-08-06T10:12:39;0.70;;;0.60;;
8066;SDS011;4076;48.076;9.118;2023-08-06T10:15:12;0.70;;;0.60;;
8066;SDS011;4076;48.076;9.118;2023-08-06T10:17:41;0.70;;;0.50;;
8066;SDS011;4076;48.076;9.118;2023-08-06T10:20:09;0.70;;;0.60;;
8066;SDS011;4076;48.076;9.118;2023-08-06T10:22:35;0.70;;;0.63;;
8066;SDS011;4076;48.076;9.118;2023-08-06T10:25:01;0.70;;;0.60;;
8066;SDS011;4076;48.076;9.118;2023-08-06T10:27:40;0.70;;;0.60;;
8066;SDS011;4076;48.076;9.118;2023-08-06T10:32:49;0.70;;;0.60;;
8066;SDS011;4076;48.076;9.118;2023-08-06T10:35:27;0.70;;;0.50;;
8066;SDS011;4076;48.076;9.118;2023-08-06T10:37:57;0.70;;;0.60;;
8066;SDS011;4076;48.076;9.118;2023-08-06T10:40:28;0.80;;;0.70;;
8066;SDS011;4076;48.076;9.118;2023-08-06T10:42:56;0.80;;;0.70;;
8066;SDS011;4076;48.076;9.118;2023-08-06T10:45:24;0.70;;;0.60;;
8066;SDS011;4076;48.076;9.118;2023-08-06T10:47:53;1.50;;;0.70;;
8066;SDS011;4076;48.076;9.118;2023-08-06T10:50:19;0.70;;;0.60;;
8066;SDS011;4076;48.076;9.118;2023-08-06T10:52:45;0.70;;;0.60;;
8066;SDS011;4076;48.076;9.118;2023-08-06T10:55:12;0.80;;;0.70;;
8066;SDS011;4076;48.076;9.118;2023-08-06T10:57:38;1.63;;;0.60;;
8066;SDS011;4076;48.076;9.118;2023-08-06T11:00:04;0.70;;;0.60;;
8066;SDS011;4076;48.076;9.118;2023-08-06T11:02:35;0.80;;;0.80;;
8066;SDS011;4076;48.076;9.118;2023-08-06T11:05:05;0.70;;;0.67;;
8066;SDS011;4076;48.076;9.118;2023-08-06T11:07:34;0.80;;;0.70;;
8066;SDS011;4076;48.076;9.118;2023-08-06T11:10:01;1.40;;;1.10;;
8066;SDS011;4076;48.076;9.118;2023-08-06T11:12:28;1.07;;;0.80;;
8066;SDS011;4076;48.076;9.118;2023-08-06T11:14:54;0.70;;;0.70;;
8066;SDS011;4076;48.076;9.118;2023-08-06T11:17:20;0.70;;;0.60;;
8066;SDS011;4076;48.076;9.118;2023-08-06T11:19:46;0.70;;;0.60;;
8066;SDS011;4076;48.076;9.118;2023-08-06T11:22:12;0.70;;;0.60;;
8066;SDS011;4076;48.076;9.118;2023-08-06T11:24:39;0.80;;;0.60;;
8066;SDS011;4076;48.076;9.118;2023-08-06T11:27:11;0.80;;;0.70;;
8066;SDS011;4076;48.076;9.118;2023-08-06T11:29:38;0.90;;;0.60;;
8066;SDS011;4076;48.076;9.118;2023-08-06T11:32:07;0.77;;;0.70;;
8066;SDS011;4076;48.076;9.118;2023-08-06T11:34:33;0.70;;;0.70;;
8066;SDS011;4076;48.076;9.118;2023-08-06T11:37:00;1.00;;;0.90;;
8066;SDS011;4076;48.076;9.118;2023-08-06T11:39:27;0.90;;;0.77;;
8066;SDS011;4076;48.076;9.118;2023-08-06T11:41:53;0.70;;;0.70;;
8066;SDS011;4076;48.076;9.118;2023-08-06T11:44:19;0.70;;;0.60;;
8066;SDS011;4076;48.076;9.118;2023-08-06T11:46:54;0.70;;;0.60;;
8066;SDS011;4076;48.076;9.118;2023-08-06T11:52:14;0.90;;;0.80;;
8066;SDS011;4076;48.076;9.118;2023-08-06T11:54:39;0.80;;;0.60;;
8066;SDS011;4076;48.076;9.118;2023-08-06T11:57:05;0.70;;;0.60;;
8066;SDS011;4076;48.076;9.118;2023-08-06T11:59:31;0.70;;;0.60;;
8066;SDS011;4076;48.076;9.118;2023-08-06T12:01:57;1.20;;;0.70;;
8066;SDS011;4076;48.076;9.118;2023-08-06T12:04:25;0.80;;;0.77;;
8066;SDS011;4076;48.076;9.118;2023-08-06T12:06:50;1.07;;;0.63;;
8066;SDS011;4076;48.076;9.118;2023-08-06T12:09:16;1.93;;;0.67;;
8066;SDS011;4076;48.076;9.118;2023-08-06T12:11:42;0.90;;;0.60;;
8066;SDS011;4076;48.076;9.118;2023-08-06T12:14:07;0.90;;;0.63;;
8066;SDS011;4076;48.076;9.118;2023-08-06T12:16:33;2.37;;;0.97;;
8066;SDS011;4076;48.076;9.118;2023-08-06T12:18:59;0.80;;;0.70;;
8066;SDS011;4076;48.076;9.118;2023-08-06T12:21:24;1.43;;;0.70;;
8066;SDS011;4076;48.076;9.118;2023-08-06T12:23:50;1.40;;;1.00;;
8066;SDS011;4076;48.076;9.118;2023-08-06T12:26:15;1.20;;;0.70;;
8066;SDS011;4076;48.076;9.118;2023-08-06T12:28:41;1.93;;;0.80;;
8066;SDS011;4076;48.076;9.118;2023-08-06T12:31:06;0.80;;;0.70;;
8066;SDS011;4076;48.076;9.118;2023-08-06T12:33:32;0.80;;;0.70;;
8066;SDS011;4076;48.076;9.118;2023-08-06T12:35:57;0.70;;;0.53;;
8066;SDS011;4076;48.076;9.118;2023-08-06T12:38:23;0.70;;;0.60;;
8066;SDS011;4076;48.076;9.118;2023-08-06T12:40:49;1.47;;;1.27;;
8066;SDS011;4076;48.076;9.118;2023-08-06T12:43:14;1.63;;;0.60;;
8066;SDS011;4076;48.076;9.118;2023-08-06T12:45:40;0.80;;;0.70;;
8066;SDS011;4076;48.076;9.118;2023-08-06T12:48:06;1.10;;;1.00;;
8066;SDS011;4076;48.076;9.118;2023-08-06T12:50:31;0.80;;;0.70;;
8066;SDS011;4076;48.076;9.118;2023-08-06T12:52:57;0.70;;;0.60;;
8066;SDS011;4076;48.076;9.118;2023-08-06T12:55:23;0.70;;;0.70;;
8066;SDS011;4076;48.076;9.118;2023-08-06T12:57:48;0.80;;;0.80;;
8066;SDS011;4076;48.076;9.118;2023-08-06T13:00:14;0.80;;;0.80;;
8066;SDS011;4076;48.076;9.118;2023-08-06T13:02:40;1.47;;;0.70;;
8066;SDS011;4076;48.076;9.118;2023-08-06T13:05:05;0.80;;;0.67;;
8066;SDS011;4076;48.076;9.118;2023-08-06T13:07:32;0.70;;;0.70;;
8066;SDS011;4076;48.076;9.118;2023-08-06T13:09:57;0.70;;;0.60;;
8066;SDS011;4076;48.076;9.118;2023-08-06T13:12:23;0.90;;;0.80;;
8066;SDS011;4076;48.076;9.118;2023-08-06T13:14:48;0.80;;;0.80;;
8066;SDS011;4076;48.076;9.118;2023-08-06T13:17:14;0.70;;;0.60;;
8066;SDS011;4076;48.076;9.118;2023-08-06T13:19:40;0.70;;;0.60;;
8066;SDS011;4076;48.076;9.118;2023-08-06T13:22:05;0.80;;;0.60;;
8066;SDS011;4076;48.076;9.118;2023-08-06T13:24:33;0.90;;;0.60;;
8066;SDS011;4076;48.076;9.118;2023-08-06T13:26:59;0.70;;;0.70;;
8066;SDS011;4076;48.076;9.118;2023-08-06T13:29:26;0.70;;;0.67;;
8066;SDS011;4076;48.076;9.118;2023-08-06T13:31:52;0.70;;;0.60;;
8066;SDS011;4076;48.076;9.118;2023-08-06T13:34:18;0.70;;;0.70;;
8066;SDS011;4076;48.076;9.118;2023-08-06T13:36:44;0.77;;;0.67;;
8066;SDS011;4076;48.076;9.118;2023-08-06T13:39:10;0.70;;;0.60;;
8066;SDS011;4076;48.076;9.118;2023-08-06T13:41:37;0.70;;;0.57;;
8066;SDS011;4076;48.076;9.118;2023-08-06T13:44:04;1.00;;;0.80;;
8066;SDS011;4076;48.076;9.118;2023-08-06T13:46:30;0.80;;;0.60;;
8066;SDS011;4076;48.076;9.118;2023-08-06T13:48:55;0.70;;;0.60;;
8066;SDS011;4076;48.076;9.118;2023-08-06T13:51:21;0.97;;;0.77;;
8066;SDS011;4076;48.076;9.118;2023-08-06T13:53:47;0.70;;;0.67;;
8066;SDS011;4076;48.076;9.118;2023-08-06T13:56:13;0.70;;;0.70;;
8066;SDS011;4076;48.076;9.118;2023-08-06T13:58:42;0.70;;;0.60;;
8066;SDS011;4076;48.076;9.118;2023-08-06T14:01:09;0.70;;;0.60;;
8066;SDS011;4076;48.076;9.118;2023-08-06T14:03:36;1.10;;;0.77;;
8066;SDS011;4076;48.076;9.118;2023-08-06T14:06:01;0.70;;;0.70;;
8066;SDS011;4076;48.076;9.118;2023-08-06T14:08:27;0.70;;;0.60;;
8066;SDS011;4076;48.076;9.118;2023-08-06T14:10:53;0.90;;;0.70;;
8066;SDS011;4076;48.076;9.118;2023-08-06T14:13:19;1.73;;;0.70;;
8066;SDS011;4076;48.076;9.118;2023-08-06T14:15:44;0.90;;;0.60;;
8066;SDS011;4076;48.076;9.118;2023-08-06T14:18:13;1.07;;;0.73;;
8066;SDS011;4076;48.076;9.118;2023-08-06T14:20:39;0.83;;;0.70;;
8066;SDS011;4076;48.076;9.118;2023-08-06T14:23:06;0.70;;;0.60;;
8066;SDS011;4076;48.076;9.118;2023-08-06T14:25:31;0.70;;;0.63;;
8066;SDS011;4076;48.076;9.118;2023-08-06T14:27:57;0.80;;;0.70;;
8066;SDS011;4076;48.076;9.118;2023-08-06T14:30:23;0.70;;;0.60;;
8066;SDS011;4076;48.076;9.118;2023-08-06T14:32:48;0.70;;;0.60;;
8066;SDS011;4076;48.076;9.118;2023-08-06T14:35:14;0.70;;;0.70;;
8066;SDS011;4076;48.076;9.118;2023-08-06T14:37:39;0.70;;;0.60;;
8066;SDS011;4076;48.076;9.118;2023-08-06T14:40:06;1.00;;;0.90;;
8066;SDS011;4076;48.076;9.118;2023-08-06T14:42:33;0.70;;;0.70;;
8066;SDS011;4076;48.076;9.118;2023-08-06T14:44:58;0.90;;;0.80;;
8066;SDS011;4076;48.076;9.118;2023-08-06T14:47:24;1.00;;;0.80;;
8066;SDS011;4076;48.076;9.118;2023-08-06T14:49:49;0.70;;;0.60;;
8066;SDS011;4076;48.076;9.118;2023-08-06T14:52:16;0.80;;;0.80;;
8066;SDS011;4076;48.076;9.118;2023-08-06T14:54:41;0.80;;;0.80;;
8066;SDS011;4076;48.076;9.118;2023-08-06T14:57:07;0.80;;;0.80;;
8066;SDS011;4076;48.076;9.118;2023-08-06T14:59:34;1.00;;;0.90;;
8066;SDS011;4076;48.076;9.118;2023-08-06T15:02:00;1.37;;;0.97;;
8066;SDS011;4076;48.076;9.118;2023-08-06T15:04:25;0.80;;;0.70;;
8066;SDS011;4076;48.076;9.118;2023-08-06T15:06:51;1.37;;;0.80;;
8066;SDS011;4076;48.076;9.118;2023-08-06T15:09:17;0.80;;;0.80;;
8066;SDS011;4076;48.076;9.118;2023-08-06T15:11:42;1.10;;;1.00;;
8066;SDS011;4076;48.076;9.118;2023-08-06T15:14:08;1.00;;;0.90;;
8066;SDS011;4076;48.076;9.118;2023-08-06T15:16:33;0.90;;;0.73;;
8066;SDS011;4076;48.076;9.118;2023-08-06T15:19:00;1.00;;;1.00;;
8066;SDS011;4076;48.076;9.118;2023-08-06T15:21:26;2.03;;;1.93;;
8066;SDS011;4076;48.076;9.118;2023-08-06T15:23:52;1.23;;;1.13;;